Sv.knyaz Vladimir — UBKI2 — position and weather

sailwx.info

Track history (hours):
 
Tides and Currents Weather Stations Pressure Air Temp Water Temp Dewpoint Dewpoint Depression Visibility Wind Speed Wind Dir Waves Ship Positions

Sv.knyaz Vladimir

Last reported at 2015-Aug-13 14:19 UTC. Time now 2015-Sep-01 08:00 UTC.
Position N 44°46' E 036°24'.
Warning: this ship's position is 18 days out of date.

Length 128 m; draft 3.3 m.

Type: Cargo ship. MMSI: 273350360.

Date/timePositionNaut miles runAvg speedWind from/ knotsBaromVisibWave heightAir tempDewpointWater temp
2015-Aug-13 14:19N 44°46' E 036°24'12 6.7
2015-Aug-13 12:30N 44°39' E 036°10'9 9.8
2015-Aug-13 11:33N 44°34' E 035°59'10 9.6
2015-Aug-13 10:33N 44°28' E 035°48'9 9.2
2015-Aug-13 09:33N 44°23' E 035°37'9 9.2
2015-Aug-13 08:33N 44°18' E 035°27'9 9.5
2015-Aug-13 07:33N 44°12' E 035°16'9 9.4
2015-Aug-13 06:33N 44°07' E 035°05'9 9.3
2015-Aug-13 05:33N 44°02' E 034°54'10 9.2
2015-Aug-13 04:26N 43°57' E 034°42'  
2015-Aug-07 06:32N 36°27' E 015°00'9 9.5
2015-Aug-07 05:33N 36°28' E 014°49'10 9.7
2015-Aug-07 04:33N 36°28' E 014°37'10 9.6
2015-Aug-07 03:33N 36°31' E 014°25'9 9.5
2015-Aug-07 02:33N 36°34' E 014°14'10 9.5
2015-Aug-07 01:33N 36°37' E 014°03'10 9.6
2015-Aug-07 00:33N 36°39' E 013°51'10 9.6
2015-Aug-06 23:33N 36°42' E 013°40'10 9.8
2015-Aug-06 22:33N 36°46' E 013°28'10 9.8
2015-Aug-06 21:33N 36°49' E 013°17'9 9.2
2015-Aug-06 20:33N 36°52' E 013°06'9 9.0
2015-Aug-06 19:33N 36°54' E 012°55'9 9.4
2015-Aug-06 18:33N 36°57' E 012°44'10 9.5
2015-Aug-06 17:33N 37°00' E 012°32'10 9.8
2015-Aug-06 16:33N 37°03' E 012°20'9 9.3
2015-Aug-06 15:33N 37°05' E 012°09'4 3.9
2015-Aug-06 14:33N 37°07' E 012°05'8 8.1
2015-Aug-06 13:33N 37°10' E 011°56'9 8.8
2015-Aug-06 12:33N 37°12' E 011°45'18 8.9
2015-Aug-06 10:33N 37°18' E 011°24'9110.0
2015-Aug-06 01:25N 37°35' E 009°31'38 9.8
2015-Aug-05 21:30N 37°36' E 008°42'101 9.1
2015-Aug-05 10:20N 37°26' E 006°35'33 8.5
2015-Aug-05 06:26N 37°23' E 005°54'9 9.0
2015-Aug-05 05:27N 37°22' E 005°43'18 9.2
2015-Aug-05 03:27N 37°20' E 005°20'9 9.4
2015-Aug-05 02:31N 37°19' E 005°09'9 9.4
2015-Aug-05 01:33N 37°19' E 004°57'21 9.7
2015-Aug-04 23:20N 37°16' E 004°31'7 9.6
2015-Aug-04 22:33N 37°15' E 004°21'10 9.5
2015-Aug-04 21:33N 37°13' E 004°10'10 9.5
2015-Aug-04 20:31N 37°12' E 003°57'19 9.6
2015-Aug-04 18:31N 37°08' E 003°34'57 9.4
2015-Aug-04 12:29N 36°58' E 002°24'97 9.7
2015-Aug-04 02:30N 36°40' E 000°25'9 9.8
2015-Aug-04 01:33N 36°38' E 000°13'10 9.6
2015-Aug-04 00:32N 36°36' E 000°02'18 9.3
2015-Aug-03 22:33N 36°33' W 000°21'9 9.4
2015-Aug-03 21:33N 36°31' W 000°33'10 9.4
2015-Aug-03 20:28N 36°30' W 000°45'8 9.2
2015-Aug-03 19:33N 36°28' W 000°55'9 8.9
2015-Aug-03 18:31N 36°26' W 001°06'20 8.5
2015-Aug-03 16:10N 36°22' W 001°31'  
Track history (hours):
 
Tides and Currents Weather Stations Pressure Air Temp Water Temp Dewpoint Dewpoint Depression Visibility Wind Speed Wind Dir Waves Ship Positions

Sv.knyaz Vladimir

Last reported at 2015-Aug-13 14:19 UTC. Time now 2015-Sep-01 08:00 UTC.
Position N 44°46' E 036°24'.
Warning: this ship's position is 18 days out of date.

Length 128 m; draft 3.3 m.

Type: Cargo ship. MMSI: 273350360.

Date/timePositionNaut miles runAvg speedWind from/ knotsBaromVisibWave heightAir tempDewpointWater temp
2015-Aug-13 14:19N 44°46' E 036°24'12 6.7
2015-Aug-13 12:30N 44°39' E 036°10'9 9.8
2015-Aug-13 11:33N 44°34' E 035°59'10 9.6
2015-Aug-13 10:33N 44°28' E 035°48'9 9.2
2015-Aug-13 09:33N 44°23' E 035°37'9 9.2
2015-Aug-13 08:33N 44°18' E 035°27'9 9.5
2015-Aug-13 07:33N 44°12' E 035°16'9 9.4
2015-Aug-13 06:33N 44°07' E 035°05'9 9.3
2015-Aug-13 05:33N 44°02' E 034°54'10 9.2
2015-Aug-13 04:26N 43°57' E 034°42'  
2015-Aug-07 06:32N 36°27' E 015°00'9 9.5
2015-Aug-07 05:33N 36°28' E 014°49'10 9.7
2015-Aug-07 04:33N 36°28' E 014°37'10 9.6
2015-Aug-07 03:33N 36°31' E 014°25'9 9.5
2015-Aug-07 02:33N 36°34' E 014°14'10 9.5
2015-Aug-07 01:33N 36°37' E 014°03'10 9.6
2015-Aug-07 00:33N 36°39' E 013°51'10 9.6
2015-Aug-06 23:33N 36°42' E 013°40'10 9.8
2015-Aug-06 22:33N 36°46' E 013°28'10 9.8
2015-Aug-06 21:33N 36°49' E 013°17'9 9.2
2015-Aug-06 20:33N 36°52' E 013°06'9 9.0
2015-Aug-06 19:33N 36°54' E 012°55'9 9.4
2015-Aug-06 18:33N 36°57' E 012°44'10 9.5
2015-Aug-06 17:33N 37°00' E 012°32'10 9.8
2015-Aug-06 16:33N 37°03' E 012°20'9 9.3
2015-Aug-06 15:33N 37°05' E 012°09'4 3.9
2015-Aug-06 14:33N 37°07' E 012°05'8 8.1
2015-Aug-06 13:33N 37°10' E 011°56'9 8.8
2015-Aug-06 12:33N 37°12' E 011°45'18 8.9
2015-Aug-06 10:33N 37°18' E 011°24'9110.0
2015-Aug-06 01:25N 37°35' E 009°31'38 9.8
2015-Aug-05 21:30N 37°36' E 008°42'101 9.1
2015-Aug-05 10:20N 37°26' E 006°35'33 8.5
2015-Aug-05 06:26N 37°23' E 005°54'9 9.0
2015-Aug-05 05:27N 37°22' E 005°43'18 9.2
2015-Aug-05 03:27N 37°20' E 005°20'9 9.4
2015-Aug-05 02:31N 37°19' E 005°09'9 9.4
2015-Aug-05 01:33N 37°19' E 004°57'21 9.7
2015-Aug-04 23:20N 37°16' E 004°31'7 9.6
2015-Aug-04 22:33N 37°15' E 004°21'10 9.5
2015-Aug-04 21:33N 37°13' E 004°10'10 9.5
2015-Aug-04 20:31N 37°12' E 003°57'19 9.6
2015-Aug-04 18:31N 37°08' E 003°34'57 9.4
2015-Aug-04 12:29N 36°58' E 002°24'97 9.7
2015-Aug-04 02:30N 36°40' E 000°25'9 9.8
2015-Aug-04 01:33N 36°38' E 000°13'10 9.6
2015-Aug-04 00:32N 36°36' E 000°02'18 9.3
2015-Aug-03 22:33N 36°33' W 000°21'9 9.4
2015-Aug-03 21:33N 36°31' W 000°33'10 9.4
2015-Aug-03 20:28N 36°30' W 000°45'8 9.2
2015-Aug-03 19:33N 36°28' W 000°55'9 8.9
2015-Aug-03 18:31N 36°26' W 001°06'20 8.5
2015-Aug-03 16:10N 36°22' W 001°31'  

Dump ship's entire track history